BKPR

Priština International  Airport

Prishtina, Kosovo

BKPR 241430Z VRB03KT CAVOK 11/02 Q1020 NOSIG RMK 17010095

Observed Flight Rules
Nov-24 @ 14:30 UTC (25 minutes ago)
 
Visual Flight Rules
Wind Visibility Clouds
Variable at 3 knots 10,000+ meters
  • Clear skies
Temperatures Readings
Current 11°C / 52°F
Dewpoint 2°C / 36°F
Humidity 54%
Altimeter 30.12" Hg
Pressure 1020 hPa
Elevation 576
Observed Flight Rules
Nov-24 @ 14:30 UTC
(25 minutes ago)
 
VFR
Wind Visibility
Variable at 3 knots 10,000+ meters
Clouds
  • Clear skies
Temperature Dewpoint
11°C / 52°F 2°C / 36°F
Humidity Altimeter Pressure
54% 30.12" Hg 1020 hPa